Sattler, Texas
Current Conditions -  °F | °C
As of 5:16 PM on Sunday 21 Dec 2014 (Local Time) from KBAZ Reporting Station
Haze Haze  
Wind Chill: 56°   Ceiling: 1600
Heat Index: 56°   Visibility: 10mi
Dew Point: 52°   Wind: 10mph
Humidity: 87%   Direction: 200°SSW
Pressure: 29.89"   Gusts: NA
Location:  29.8812°N, 98.2387°W
Report Text: KBAZ 212316Z 20009KT 10SM BR FEW009 OVC016 13/11 A2989 RMK AO2 T01330111
Loading
Personal Weather Stations






























Interactive Weather Map New forecast layout! Learn more

10-Day Weather Forecast

Advertisements
Track Severe Weather on mobile